Time;durP1;ratioP1;P1;durP2;ratioP2;P2;SDS_P1;SDS_P2;PMS_P1;PMS_P2;Temp;Humidity;BMP_temperature;BMP_pressure;BME280_temperature;BME280_humidity;BME280_pressure;Samples;Min_cycle;Max_cycle;Signal;HPM_P1;HPM_P2
2022/10/09 00:01:45;;;;;;;12.23;11.03;;;7.30;99.90;;;;;;4902759;29;20213;-79
2022/10/09 00:04:14;;;;;;;11.67;10.77;;;7.20;99.90;;;;;;4903001;29;20214;-79
2022/10/09 00:06:40;;;;;;;12.03;10.83;;;7.20;99.90;;;;;;4901087;29;20741;-79
2022/10/09 00:09:07;;;;;;;12.20;11.10;;;7.20;99.90;;;;;;4919106;29;20267;-79
2022/10/09 00:11:34;;;;;;;12.07;11.07;;;7.20;99.90;;;;;;4899877;29;20685;-79
2022/10/09 00:14:02;;;;;;;12.23;11.20;;;7.20;99.90;;;;;;4898918;29;20247;-79
2022/10/09 00:16:29;;;;;;;11.37;10.57;;;7.20;99.90;;;;;;4922952;29;20277;-79
2022/10/09 00:18:57;;;;;;;11.23;10.37;;;7.10;99.90;;;;;;4900803;29;20208;-79
2022/10/09 00:21:28;;;;;;;12.50;11.40;;;7.00;99.90;;;;;;4910268;29;20823;-79
2022/10/09 00:23:58;;;;;;;12.47;11.37;;;7.00;99.90;;;;;;4902095;29;20319;-79
2022/10/09 00:26:25;;;;;;;11.70;10.60;;;7.10;99.90;;;;;;4917187;29;20230;-79
2022/10/09 00:28:52;;;;;;;12.07;11.17;;;7.10;99.90;;;;;;4921673;29;20214;-79
2022/10/09 00:31:20;;;;;;;12.07;11.00;;;7.20;99.90;;;;;;4914774;29;20203;-79
2022/10/09 00:33:47;;;;;;;11.53;10.63;;;7.20;99.90;;;;;;4898782;29;20222;-79
2022/10/09 00:36:17;;;;;;;12.43;11.33;;;7.10;99.90;;;;;;4917886;29;20237;-79
2022/10/09 00:38:46;;;;;;;12.20;10.93;;;7.00;99.90;;;;;;4911704;29;20235;-79
2022/10/09 00:41:16;;;;;;;11.27;10.47;;;6.90;99.90;;;;;;4902808;29;20225;-79
2022/10/09 00:43:47;;;;;;;11.97;10.97;;;6.80;99.90;;;;;;4915685;29;20202;-79
2022/10/09 00:46:24;;;;;;;11.70;10.63;;;6.80;99.90;;;;;;4918303;29;20221;-79
2022/10/09 00:48:58;;;;;;;10.90;10.10;;;6.80;99.90;;;;;;4917024;29;20202;-79
2022/10/09 00:51:25;;;;;;;12.07;11.07;;;6.80;99.90;;;;;;4913334;29;20205;-79
2022/10/09 00:53:53;;;;;;;12.00;10.90;;;6.80;99.90;;;;;;4900076;29;20237;-79
2022/10/09 00:56:20;;;;;;;12.10;11.00;;;6.70;99.90;;;;;;4896682;29;20223;-79
2022/10/09 00:58:52;;;;;;;11.93;10.80;;;6.70;99.90;;;;;;4913004;29;20204;-79
2022/10/09 01:01:20;;;;;;;12.40;11.37;;;6.60;99.90;;;;;;4913470;29;20199;-79
2022/10/09 01:03:47;;;;;;;12.67;11.37;;;6.70;99.90;;;;;;4920951;29;20198;-79
2022/10/09 01:06:19;;;;;;;12.00;11.00;;;6.70;99.90;;;;;;4917247;29;20238;-79
2022/10/09 01:08:51;;;;;;;11.70;10.70;;;6.60;99.90;;;;;;4898895;29;20206;-79
2022/10/09 01:11:33;;;;;;;12.27;11.20;;;6.60;99.90;;;;;;4909246;29;20207;-79
2022/10/09 01:14:06;;;;;;;11.90;10.90;;;6.70;99.90;;;;;;4900875;29;20277;-79
2022/10/09 01:16:36;;;;;;;12.03;11.10;;;6.70;99.90;;;;;;4913754;29;20296;-78
2022/10/09 01:19:12;;;;;;;12.60;11.57;;;6.80;99.90;;;;;;4896946;29;20218;-78
2022/10/09 01:21:45;;;;;;;12.10;11.10;;;6.70;99.90;;;;;;4896972;29;20234;-79
2022/10/09 01:24:24;;;;;;;12.23;11.10;;;6.70;99.90;;;;;;4914556;29;20205;-79
2022/10/09 01:27:00;;;;;;;11.83;10.83;;;6.70;99.90;;;;;;4925480;29;20282;-79
2022/10/09 01:29:33;;;;;;;11.50;10.50;;;6.60;99.90;;;;;;4919870;29;20197;-77
2022/10/09 01:32:01;;;;;;;11.50;10.47;;;6.50;99.90;;;;;;4904368;29;20216;-79
2022/10/09 01:34:29;;;;;;;11.87;10.87;;;6.60;99.90;;;;;;4916010;29;20225;-79
2022/10/09 01:36:58;;;;;;;11.60;10.73;;;6.60;99.90;;;;;;4913809;29;20214;-79
2022/10/09 01:39:26;;;;;;;12.03;11.03;;;6.50;99.90;;;;;;4901064;29;20233;-79
2022/10/09 01:41:54;;;;;;;11.87;10.87;;;6.60;99.90;;;;;;4916642;29;20205;-79
2022/10/09 01:44:24;;;;;;;11.73;10.50;;;6.60;99.90;;;;;;4896533;29;20205;-79
2022/10/09 01:46:51;;;;;;;11.60;10.60;;;6.50;99.90;;;;;;4925984;29;20217;-79
2022/10/09 01:49:33;;;;;;;11.47;10.57;;;6.50;99.90;;;;;;4927247;29;20210;-79
2022/10/09 01:52:06;;;;;;;11.20;10.30;;;6.40;99.90;;;;;;4925893;29;20203;-80
2022/10/09 01:54:37;;;;;;;11.17;10.27;;;6.50;99.90;;;;;;4921671;29;20222;-79
2022/10/09 01:57:08;;;;;;;11.63;10.63;;;6.60;99.90;;;;;;4906241;29;20208;-79
2022/10/09 01:59:39;;;;;;;10.77;9.90;;;6.50;99.90;;;;;;4924371;29;20199;-79
2022/10/09 02:02:07;;;;;;;11.97;10.97;;;6.40;99.90;;;;;;4915806;29;20199;-79
2022/10/09 02:04:38;;;;;;;11.03;10.13;;;6.50;99.90;;;;;;4935017;29;20192;-78
2022/10/09 02:07:06;;;;;;;11.30;10.40;;;6.50;99.90;;;;;;4895700;29;20213;-79
2022/10/09 02:09:35;;;;;;;11.90;10.90;;;6.60;99.90;;;;;;4910663;29;20193;-78
2022/10/09 02:12:07;;;;;;;11.63;10.53;;;6.60;99.90;;;;;;4920323;29;20227;-79
2022/10/09 02:14:36;;;;;;;12.60;11.30;;;6.70;99.90;;;;;;4916248;29;20225;-80
2022/10/09 02:17:08;;;;;;;12.03;11.13;;;6.70;99.90;;;;;;4925249;29;20194;-79
2022/10/09 02:19:39;;;;;;;11.53;10.73;;;6.80;99.90;;;;;;4921352;29;20211;-79
2022/10/09 02:22:13;;;;;;;12.07;11.17;;;6.80;99.90;;;;;;4920212;29;20209;-79
2022/10/09 02:24:41;;;;;;;14.20;13.00;;;6.90;99.90;;;;;;4924673;29;20200;-79
2022/10/09 02:27:08;;;;;;;14.30;12.83;;;7.00;99.90;;;;;;4907625;29;20273;-79
2022/10/09 02:29:38;;;;;;;14.53;12.83;;;7.10;99.90;;;;;;4918495;29;20193;-79
2022/10/09 02:32:05;;;;;;;14.73;13.40;;;7.20;99.90;;;;;;4917727;29;20194;-79
2022/10/09 02:34:32;;;;;;;14.40;13.20;;;7.20;99.90;;;;;;4921740;29;20270;-79
2022/10/09 02:36:59;;;;;;;14.50;13.40;;;7.20;99.90;;;;;;4903816;29;20206;-79
2022/10/09 02:39:26;;;;;;;14.93;13.80;;;7.30;99.90;;;;;;4900370;29;20211;-78
2022/10/09 02:41:53;;;;;;;14.73;13.63;;;7.20;99.90;;;;;;4920738;29;20213;-79
2022/10/09 02:44:20;;;;;;;13.77;12.80;;;7.20;99.90;;;;;;4916691;29;20198;-79
2022/10/09 02:46:48;;;;;;;14.63;13.53;;;7.20;99.90;;;;;;4898497;29;20662;-79
2022/10/09 02:49:15;;;;;;;13.80;12.80;;;7.20;99.90;;;;;;4915982;29;20625;-80
2022/10/09 02:51:42;;;;;;;13.63;12.70;;;7.20;99.90;;;;;;4902224;29;20206;-79
2022/10/09 02:54:09;;;;;;;12.60;11.80;;;7.10;99.90;;;;;;4897108;29;20816;-80
2022/10/09 02:59:50;;;;;;;13.80;12.90;;;7.10;99.90;;;;;;4911916;29;20694;-79
2022/10/09 03:02:18;;;;;;;14.60;13.50;;;7.00;99.90;;;;;;4897749;29;20209;-79
2022/10/09 03:04:54;;;;;;;13.87;12.87;;;6.90;99.90;;;;;;4913213;29;20734;-79
2022/10/09 03:07:21;;;;;;;14.17;13.10;;;6.90;99.90;;;;;;4919697;29;20664;-80
2022/10/09 03:09:48;;;;;;;20.27;14.23;;;6.90;99.90;;;;;;4931930;29;20522;-79
2022/10/09 03:12:20;;;;;;;15.90;14.70;;;6.90;99.90;;;;;;4912988;29;20212;-80
2022/10/09 03:14:46;;;;;;;20.43;15.63;;;6.90;99.90;;;;;;4928326;29;20226;-79
2022/10/09 03:17:13;;;;;;;15.50;14.33;;;6.90;99.90;;;;;;4913581;29;20208;-80
2022/10/09 03:19:42;;;;;;;14.23;13.33;;;6.90;99.90;;;;;;4907929;29;20214;-80
2022/10/09 03:22:08;;;;;;;14.50;13.50;;;6.90;99.90;;;;;;4917227;29;20262;-79
2022/10/09 03:24:35;;;;;;;14.77;13.67;;;6.90;99.90;;;;;;4913822;29;20209;-79
2022/10/09 03:27:02;;;;;;;14.80;13.90;;;6.90;99.90;;;;;;4915354;29;20202;-80
2022/10/09 03:29:29;;;;;;;14.07;13.17;;;6.90;99.90;;;;;;4901944;29;20202;-79
2022/10/09 03:31:56;;;;;;;15.50;14.43;;;6.90;99.90;;;;;;4891326;29;20215;-80
2022/10/09 03:34:22;;;;;;;15.47;14.37;;;6.90;99.90;;;;;;4890800;29;20236;-78
2022/10/09 03:36:51;;;;;;;16.33;15.13;;;7.00;99.90;;;;;;4905782;29;20711;-79
2022/10/09 03:39:17;;;;;;;14.90;13.93;;;7.00;99.90;;;;;;4925086;29;20269;-79
2022/10/09 03:41:44;;;;;;;17.10;15.63;;;7.00;99.90;;;;;;4914239;29;20212;-82
2022/10/09 03:44:11;;;;;;;14.83;13.83;;;7.00;99.90;;;;;;4912379;29;20202;-78
2022/10/09 03:46:38;;;;;;;15.73;14.53;;;6.90;99.90;;;;;;4907490;29;20226;-77
2022/10/09 03:49:05;;;;;;;15.10;14.10;;;6.90;99.90;;;;;;4900554;29;20595;-77
2022/10/09 03:51:32;;;;;;;14.80;13.80;;;7.00;99.90;;;;;;4902216;29;20206;-76
2022/10/09 03:54:00;;;;;;;14.83;13.83;;;7.00;99.90;;;;;;4912222;29;20217;-76
2022/10/09 03:56:27;;;;;;;15.20;13.90;;;7.00;99.90;;;;;;4912973;29;20217;-76
2022/10/09 03:58:54;;;;;;;14.90;13.90;;;6.80;99.90;;;;;;4914954;29;20673;-77
2022/10/09 04:01:20;;;;;;;15.10;14.10;;;6.90;99.90;;;;;;4900721;29;20278;-77
2022/10/09 04:03:47;;;;;;;15.37;14.27;;;6.90;99.90;;;;;;4916952;29;20197;-77
2022/10/09 04:06:14;;;;;;;15.90;14.80;;;7.00;99.90;;;;;;4919051;29;20625;-77
2022/10/09 04:08:41;;;;;;;15.10;14.10;;;7.10;99.90;;;;;;4900189;29;20218;-78
2022/10/09 04:11:10;;;;;;;15.17;14.17;;;6.90;99.90;;;;;;4917389;29;20217;-77
2022/10/09 04:13:36;;;;;;;16.73;15.23;;;6.90;99.90;;;;;;4897592;29;20211;-76
2022/10/09 04:16:04;;;;;;;15.53;14.53;;;6.90;99.90;;;;;;4897704;29;20636;-77
2022/10/09 04:18:30;;;;;;;15.70;14.57;;;6.90;99.90;;;;;;4917176;29;20207;-77
2022/10/09 04:20:57;;;;;;;15.97;14.87;;;6.80;99.90;;;;;;4918929;29;20214;-77
2022/10/09 04:23:25;;;;;;;15.43;14.43;;;6.90;99.90;;;;;;4915458;29;20202;-77
2022/10/09 04:25:53;;;;;;;15.90;14.80;;;6.80;99.90;;;;;;4901523;29;20222;-77
2022/10/09 04:28:22;;;;;;;15.83;14.73;;;6.90;99.90;;;;;;4914602;29;20218;-77
2022/10/09 04:30:49;;;;;;;16.60;15.30;;;6.90;99.90;;;;;;4914674;29;20245;-77
2022/10/09 04:33:16;;;;;;;15.43;14.33;;;6.80;99.90;;;;;;4913898;29;20249;-77
2022/10/09 04:35:43;;;;;;;15.87;14.77;;;6.90;99.90;;;;;;4917031;29;20214;-77
2022/10/09 04:38:10;;;;;;;15.57;14.47;;;6.80;99.90;;;;;;4912763;29;20214;-77
2022/10/09 04:40:37;;;;;;;16.60;15.30;;;6.80;99.90;;;;;;4905074;29;20196;-77
2022/10/09 04:43:04;;;;;;;17.73;16.23;;;6.80;99.90;;;;;;4896538;29;20202;-77
2022/10/09 04:45:32;;;;;;;16.57;15.37;;;6.70;99.90;;;;;;4909422;29;20216;-77
2022/10/09 04:47:59;;;;;;;17.07;15.77;;;6.70;99.90;;;;;;4893065;29;20202;-77
2022/10/09 04:50:26;;;;;;;17.40;16.00;;;6.60;99.90;;;;;;4914021;29;20201;-77
2022/10/09 04:52:58;;;;;;;17.33;15.93;;;6.70;99.90;;;;;;4890400;29;20203;-77
2022/10/09 04:55:25;;;;;;;17.33;15.93;;;6.60;99.90;;;;;;4916944;29;20292;-77
2022/10/09 04:57:52;;;;;;;17.10;15.80;;;6.60;99.90;;;;;;4909685;29;20668;-77
2022/10/09 05:00:19;;;;;;;16.47;15.27;;;6.70;99.90;;;;;;4883233;29;20665;-77
2022/10/09 05:02:47;;;;;;;16.63;15.17;;;6.70;99.90;;;;;;4914808;29;20197;-76
2022/10/09 05:05:14;;;;;;;16.07;14.77;;;6.70;99.90;;;;;;4920630;29;20233;-77
2022/10/09 05:07:41;;;;;;;16.07;14.63;;;6.70;99.90;;;;;;4911734;29;20252;-76
2022/10/09 05:10:08;;;;;;;15.30;14.10;;;6.70;99.90;;;;;;4910026;29;20214;-76
2022/10/09 05:12:35;;;;;;;15.13;14.07;;;6.50;99.90;;;;;;4910500;29;20197;-76
2022/10/09 05:15:02;;;;;;;14.70;13.70;;;6.60;99.90;;;;;;4910118;29;20231;-77
2022/10/09 05:17:29;;;;;;;15.57;14.47;;;6.50;99.90;;;;;;4914844;29;20674;-77
2022/10/09 05:19:57;;;;;;;15.10;14.10;;;6.50;99.90;;;;;;4897429;29;20209;-76
2022/10/09 05:22:24;;;;;;;13.97;13.07;;;6.50;99.90;;;;;;4914504;29;20197;-77
2022/10/09 05:24:51;;;;;;;14.40;13.40;;;6.40;99.90;;;;;;4919061;29;20292;-77
2022/10/09 05:27:18;;;;;;;14.83;13.73;;;6.40;99.90;;;;;;4917623;29;20679;-76
2022/10/09 05:29:45;;;;;;;14.17;13.27;;;6.30;99.90;;;;;;4897299;29;20202;-76
2022/10/09 05:32:13;;;;;;;13.20;12.30;;;6.30;99.90;;;;;;4894277;29;20210;-76
2022/10/09 05:34:40;;;;;;;15.00;13.60;;;6.20;99.90;;;;;;4901063;29;20253;-77
2022/10/09 05:37:08;;;;;;;13.27;12.37;;;6.20;99.90;;;;;;4918368;29;20216;-77
2022/10/09 05:39:37;;;;;;;15.10;13.67;;;6.10;99.90;;;;;;4902137;29;20192;-78
2022/10/09 05:42:04;;;;;;;15.20;13.87;;;6.10;99.90;;;;;;4895114;29;20206;-79
2022/10/09 05:44:31;;;;;;;14.80;13.40;;;6.00;99.90;;;;;;4916966;29;20549;-77
2022/10/09 05:46:58;;;;;;;15.30;14.03;;;6.10;99.90;;;;;;4893853;29;20202;-79
2022/10/09 05:49:25;;;;;;;14.43;13.50;;;6.00;99.90;;;;;;4896421;29;20213;-77
2022/10/09 05:51:52;;;;;;;14.83;13.63;;;6.00;99.90;;;;;;4913376;29;20199;-78
2022/10/09 05:54:20;;;;;;;15.23;14.13;;;5.90;99.90;;;;;;4907822;29;20599;-78
2022/10/09 05:56:47;;;;;;;15.47;14.23;;;6.00;99.90;;;;;;4911992;29;20794;-77
2022/10/09 05:59:18;;;;;;;14.17;13.27;;;5.90;99.90;;;;;;4897386;29;20208;-78
2022/10/09 06:01:47;;;;;;;14.13;13.13;;;6.00;99.90;;;;;;4895664;29;20202;-77
2022/10/09 06:04:16;;;;;;;15.37;14.20;;;6.00;99.90;;;;;;4909240;29;20198;-76
2022/10/09 06:06:43;;;;;;;15.80;14.60;;;6.00;99.90;;;;;;4915864;29;20232;-77
2022/10/09 06:09:11;;;;;;;15.83;14.53;;;6.00;99.90;;;;;;4910216;29;20228;-77
2022/10/09 06:11:40;;;;;;;15.00;13.90;;;6.00;99.90;;;;;;4899807;29;20205;-77
2022/10/09 06:14:09;;;;;;;13.90;13.00;;;6.00;99.90;;;;;;4895083;29;20505;-77
2022/10/09 06:16:38;;;;;;;14.43;13.53;;;6.00;99.90;;;;;;4892987;29;20660;-78
2022/10/09 06:19:06;;;;;;;15.33;14.27;;;6.00;99.90;;;;;;4916704;29;20194;-79
2022/10/09 06:21:34;;;;;;;15.70;14.60;;;6.00;99.90;;;;;;4914523;29;20200;-77
2022/10/09 06:24:02;;;;;;;15.73;14.63;;;6.00;99.90;;;;;;4916956;29;20623;-79
2022/10/09 06:26:30;;;;;;;15.80;14.73;;;6.10;99.90;;;;;;4910505;29;20214;-77
2022/10/09 06:29:00;;;;;;;16.20;15.00;;;6.20;99.90;;;;;;4922841;29;20200;-79
2022/10/09 06:31:29;;;;;;;15.60;14.50;;;6.30;99.90;;;;;;4909601;29;20186;-78
2022/10/09 06:33:58;;;;;;;15.53;14.30;;;6.40;99.90;;;;;;4911983;29;20273;-82
2022/10/09 06:36:27;;;;;;;15.10;13.97;;;6.40;99.90;;;;;;4899439;29;20236;-77
2022/10/09 06:38:54;;;;;;;15.80;14.60;;;6.40;99.90;;;;;;4914963;29;20207;-77
2022/10/09 06:41:23;;;;;;;15.23;14.23;;;6.40;99.90;;;;;;4899363;29;20235;-77
2022/10/09 06:43:51;;;;;;;14.63;13.60;;;6.50;99.90;;;;;;4910647;29;20198;-77
2022/10/09 06:46:21;;;;;;;14.57;13.57;;;6.60;99.90;;;;;;4894221;29;20221;-77
2022/10/09 06:48:48;;;;;;;14.67;13.57;;;6.60;99.90;;;;;;4917676;29;20556;-77
2022/10/09 06:51:17;;;;;;;13.77;12.87;;;6.80;99.90;;;;;;4898402;29;20216;-77
2022/10/09 06:53:46;;;;;;;14.70;13.70;;;6.90;99.90;;;;;;4919104;29;20201;-78
2022/10/09 06:56:14;;;;;;;14.20;13.20;;;7.00;99.90;;;;;;4912894;29;20234;-77
2022/10/09 06:58:42;;;;;;;13.90;13.00;;;7.20;99.90;;;;;;4905535;29;20217;-80
2022/10/09 07:01:11;;;;;;;10.20;9.30;;;7.40;99.90;;;;;;4912395;29;20214;-80
2022/10/09 07:03:41;;;;;;;7.90;7.20;;;7.60;99.90;;;;;;4913239;29;20199;-80
2022/10/09 07:06:10;;;;;;;9.00;8.20;;;7.80;99.90;;;;;;4914010;29;20233;-80
2022/10/09 07:08:42;;;;;;;6.50;5.90;;;8.00;99.90;;;;;;4903819;29;20206;-81
2022/10/09 07:11:11;;;;;;;6.43;5.83;;;8.00;99.90;;;;;;4908482;29;20592;-80
2022/10/09 07:13:38;;;;;;;5.80;5.27;;;8.20;99.90;;;;;;4919242;29;20203;-79
2022/10/09 07:16:06;;;;;;;11.87;11.07;;;8.30;99.90;;;;;;4901255;29;20233;-80
2022/10/09 07:18:34;;;;;;;10.60;9.80;;;8.40;99.90;;;;;;4915652;29;20195;-77
2022/10/09 07:21:03;;;;;;;9.63;8.83;;;8.40;99.90;;;;;;4905723;29;20681;-81
2022/10/09 07:23:31;;;;;;;7.00;6.40;;;8.70;99.90;;;;;;4917912;29;20752;-79
2022/10/09 07:25:59;;;;;;;6.80;6.20;;;9.20;99.90;;;;;;4902438;29;20769;-80
2022/10/09 07:28:27;;;;;;;7.10;5.10;;;9.70;99.90;;;;;;4900668;29;20212;-80
2022/10/09 07:30:54;;;;;;;7.57;4.83;;;10.20;99.90;;;;;;4902432;29;20208;-81
2022/10/09 07:33:21;;;;;;;7.30;6.50;;;10.80;99.90;;;;;;4906638;29;20217;-83
2022/10/09 07:35:59;;;;;;;10.70;10.00;;;11.30;99.90;;;;;;4927787;29;20231;-81
2022/10/09 07:38:28;;;;;;;9.50;8.70;;;11.90;99.90;;;;;;4913609;29;20574;-81
2022/10/09 07:40:59;;;;;;;9.53;8.73;;;12.30;99.90;;;;;;4916211;29;20214;-82
2022/10/09 07:43:25;;;;;;;9.77;9.07;;;12.40;99.90;;;;;;4895084;29;20266;-81
2022/10/09 07:45:52;;;;;;;10.97;10.10;;;12.60;99.90;;;;;;4896262;29;20208;-81
2022/10/09 07:48:19;;;;;;;11.47;10.60;;;12.80;99.90;;;;;;4899414;29;20212;-80
2022/10/09 07:50:46;;;;;;;10.53;9.83;;;13.00;99.90;;;;;;4915269;29;20200;-81
2022/10/09 07:53:13;;;;;;;12.87;11.97;;;13.40;99.90;;;;;;4914136;29;20204;-81
2022/10/09 07:55:46;;;;;;;11.10;10.30;;;13.70;99.90;;;;;;4915609;29;20281;-82
2022/10/09 07:58:13;;;;;;;10.87;10.07;;;14.10;99.90;;;;;;4911465;29;20200;-80
2022/10/09 08:00:40;;;;;;;9.17;8.47;;;13.90;99.90;;;;;;4894101;29;20649;-81
2022/10/09 08:03:07;;;;;;;10.80;9.97;;;14.10;99.90;;;;;;4911464;29;20205;-80
2022/10/09 08:05:34;;;;;;;12.27;9.90;;;14.10;99.90;;;;;;4919469;29;20593;-83
2022/10/09 08:08:01;;;;;;;10.60;9.80;;;14.10;99.90;;;;;;4921470;29;20202;-82
2022/10/09 08:10:29;;;;;;;10.33;9.43;;;14.10;99.90;;;;;;4903695;29;20204;-81
2022/10/09 08:12:57;;;;;;;10.23;9.47;;;14.30;99.90;;;;;;4901079;29;20223;-78
2022/10/09 08:15:24;;;;;;;10.17;9.27;;;14.20;99.90;;;;;;4901018;29;20230;-78
2022/10/09 08:17:52;;;;;;;6.73;4.77;;;14.20;99.90;;;;;;4912726;29;20230;-78
2022/10/09 08:20:19;;;;;;;5.97;4.77;;;14.50;99.90;;;;;;4896008;29;20213;-78
2022/10/09 08:22:46;;;;;;;7.13;4.73;;;14.70;99.90;;;;;;4914717;29;20216;-78
2022/10/09 08:25:13;;;;;;;10.93;10.10;;;14.90;99.90;;;;;;4922318;29;20229;-83
2022/10/09 08:27:39;;;;;;;10.50;9.50;;;15.20;99.90;;;;;;4917052;29;20201;-78
2022/10/09 08:30:09;;;;;;;11.10;10.20;;;15.30;99.90;;;;;;4906237;29;20232;-80
2022/10/09 08:32:36;;;;;;;10.17;9.20;;;15.30;99.90;;;;;;4894169;29;20206;-79
2022/10/09 08:35:03;;;;;;;11.20;10.17;;;15.30;99.90;;;;;;4894875;29;20250;-80
2022/10/09 08:37:29;;;;;;;11.43;10.43;;;15.30;99.90;;;;;;4915139;29;20247;-80
2022/10/09 08:39:56;;;;;;;7.07;4.50;;;15.30;99.90;;;;;;4910246;29;20264;-80
2022/10/09 08:42:30;;;;;;;10.37;9.57;;;15.40;99.90;;;;;;4899935;29;20211;-78
2022/10/09 08:44:56;;;;;;;10.23;9.43;;;15.60;99.90;;;;;;4901013;29;20600;-81
2022/10/09 08:47:32;;;;;;;5.70;5.20;;;16.00;99.90;;;;;;4918126;29;20200;-79
2022/10/09 08:50:09;;;;;;;6.63;5.57;;;16.20;99.90;;;;;;4915403;29;20219;-79
2022/10/09 08:52:42;;;;;;;5.47;4.80;;;16.60;99.90;;;;;;4915995;29;20279;-79
2022/10/09 08:55:19;;;;;;;5.20;4.43;;;16.80;99.90;;;;;;4900109;29;20239;-81
2022/10/09 08:57:50;;;;;;;6.27;4.73;;;17.10;99.90;;;;;;4908595;29;20204;-80
2022/10/09 09:00:19;;;;;;;7.27;6.57;;;17.20;99.90;;;;;;4916906;29;20203;-80
2022/10/09 09:03:18;;;;;;;9.60;8.90;;;17.30;99.90;;;;;;4898863;29;20231;-80
2022/10/09 09:05:51;;;;;;;9.33;8.63;;;17.50;99.90;;;;;;4909750;29;20235;-80
2022/10/09 09:08:29;;;;;;;10.27;9.37;;;17.60;99.90;;;;;;4913110;29;20202;-81
2022/10/09 09:11:10;;;;;;;7.60;6.80;;;17.70;99.90;;;;;;4892028;29;20694;-79
2022/10/09 09:13:49;;;;;;;6.03;5.43;;;17.50;99.90;;;;;;4917910;29;20669;-80
2022/10/09 09:16:24;;;;;;;10.00;9.20;;;17.40;99.90;;;;;;4899927;29;20289;-81
2022/10/09 09:19:07;;;;;;;9.03;8.33;;;17.30;99.90;;;;;;4900436;29;20291;-80
2022/10/09 09:21:41;;;;;;;9.40;8.63;;;16.90;99.90;;;;;;4911538;29;20260;-80
2022/10/09 09:24:13;;;;;;;9.83;8.93;;;17.10;99.90;;;;;;4925163;29;20196;-80
2022/10/09 09:26:42;;;;;;;4.77;3.77;;;17.30;99.90;;;;;;4914759;29;20215;-80
2022/10/09 09:29:12;;;;;;;9.37;8.60;;;17.20;99.90;;;;;;4920618;29;20280;-81
2022/10/09 09:31:41;;;;;;;10.00;9.10;;;17.00;99.90;;;;;;4896852;29;20252;-80
2022/10/09 09:34:14;;;;;;;7.27;6.67;;;17.10;99.90;;;;;;4900842;29;20204;-79
2022/10/09 09:36:48;;;;;;;9.30;8.50;;;17.30;99.90;;;;;;4915582;29;20282;-80
2022/10/09 09:39:15;;;;;;;8.57;7.87;;;17.20;99.90;;;;;;4916124;29;20568;-80
2022/10/09 09:41:44;;;;;;;10.70;9.63;;;17.30;99.90;;;;;;4913474;29;20192;-82
2022/10/09 09:44:12;;;;;;;9.33;8.53;;;17.40;99.90;;;;;;4892420;29;20205;-80
2022/10/09 09:46:40;;;;;;;9.50;8.70;;;17.20;99.90;;;;;;4915519;29;20268;-81
2022/10/09 09:49:18;;;;;;;9.63;8.67;;;17.20;99.90;;;;;;4886985;29;20212;-79
2022/10/09 09:51:46;;;;;;;7.93;7.33;;;17.20;99.90;;;;;;4915227;29;20203;-81
2022/10/09 09:54:20;;;;;;;5.03;3.30;;;17.20;99.90;;;;;;4900550;29;20203;-82
2022/10/09 09:56:48;;;;;;;6.70;3.50;;;17.10;99.90;;;;;;4921419;29;20309;-79
2022/10/09 09:59:32;;;;;;;5.87;3.60;;;16.90;99.90;;;;;;4917024;29;20207;-80
2022/10/09 10:02:11;;;;;;;7.17;6.57;;;16.50;99.90;;;;;;4931172;29;20200;-80
2022/10/09 10:04:49;;;;;;;8.80;8.00;;;16.40;99.90;;;;;;4926027;29;20223;-80
2022/10/09 10:07:31;;;;;;;4.63;2.80;;;16.30;99.90;;;;;;4914427;29;20210;-80
2022/10/09 10:10:17;;;;;;;4.53;2.60;;;16.20;99.90;;;;;;4915083;29;20303;-79
2022/10/09 10:12:47;;;;;;;4.70;4.03;;;16.20;99.90;;;;;;4931326;29;20568;-78
2022/10/09 10:15:20;;;;;;;5.73;5.27;;;16.00;99.90;;;;;;4912401;29;20225;-77
2022/10/09 10:17:48;;;;;;;6.27;5.73;;;15.90;99.90;;;;;;4916357;29;20199;-77
2022/10/09 10:20:17;;;;;;;3.70;3.40;;;16.00;99.90;;;;;;4917355;29;20213;-77
2022/10/09 10:22:51;;;;;;;7.63;6.87;;;15.90;99.90;;;;;;4917495;29;20196;-77
2022/10/09 10:25:21;;;;;;;4.20;3.80;;;15.90;99.90;;;;;;4916179;29;20237;-77
2022/10/09 10:27:51;;;;;;;4.97;4.57;;;16.00;99.90;;;;;;4931151;29;20203;-77
2022/10/09 10:30:19;;;;;;;3.50;2.70;;;16.00;99.90;;;;;;4915281;29;20672;-78
2022/10/09 10:32:53;;;;;;;7.47;7.00;;;16.00;99.90;;;;;;4913991;29;20572;-77
2022/10/09 10:35:25;;;;;;;8.13;7.47;;;15.80;99.90;;;;;;4904586;29;20226;-78
2022/10/09 10:38:00;;;;;;;5.90;5.50;;;15.80;99.90;;;;;;4908813;29;20206;-78
2022/10/09 10:40:31;;;;;;;3.53;3.03;;;15.80;99.90;;;;;;4895518;29;20207;-78
2022/10/09 10:43:12;;;;;;;5.13;2.80;;;15.70;99.90;;;;;;4900697;29;20548;-78
2022/10/09 10:45:46;;;;;;;5.13;2.80;;;15.70;99.90;;;;;;4915583;29;20726;-79
2022/10/09 10:48:18;;;;;;;7.03;6.27;;;15.70;99.90;;;;;;4916918;29;20723;-78
2022/10/09 10:50:56;;;;;;;8.10;7.50;;;15.50;99.90;;;;;;4915305;29;20213;-79
2022/10/09 10:53:30;;;;;;;3.20;2.67;;;15.60;99.90;;;;;;4908353;29;20215;-80
2022/10/09 10:55:59;;;;;;;4.37;3.47;;;15.70;99.90;;;;;;4910202;29;20230;-79
2022/10/09 10:58:31;;;;;;;3.70;2.53;;;15.80;99.90;;;;;;4925014;29;20204;-79
2022/10/09 11:01:22;;;;;;;3.17;2.40;;;15.80;99.90;;;;;;4921189;29;20294;-80
2022/10/09 11:04:08;;;;;;;7.13;6.53;;;15.80;99.90;;;;;;4920565;29;20199;-80
2022/10/09 11:06:43;;;;;;;3.20;2.50;;;15.70;99.90;;;;;;4924789;29;20227;-81
2022/10/09 11:09:15;;;;;;;3.03;2.43;;;15.70;99.90;;;;;;4920614;29;20205;-83
2022/10/09 11:11:49;;;;;;;3.43;3.13;;;15.70;99.90;;;;;;4905880;29;20270;-79
2022/10/09 11:14:32;;;;;;;3.67;2.55;;;15.70;99.90;;;;;;4918659;29;20454;-79
2022/10/09 11:17:05;;;;;;;3.67;2.50;;;15.80;99.90;;;;;;4897358;29;20455;-78
2022/10/09 11:19:53;;;;;;;7.00;6.50;;;15.90;99.90;;;;;;4898022;29;20960;-78
2022/10/09 11:22:39;;;;;;;6.47;5.97;;;15.90;99.90;;;;;;4916554;29;20582;-77
2022/10/09 11:25:21;;;;;;;7.37;6.83;;;15.90;99.90;;;;;;4911221;29;20622;-77
2022/10/09 11:27:52;;;;;;;7.60;7.00;;;15.90;99.90;;;;;;4904652;29;20209;-79
2022/10/09 11:30:20;;;;;;;6.83;6.43;;;16.00;99.90;;;;;;4907426;29;20626;-79
2022/10/09 11:32:55;;;;;;;7.73;7.13;;;16.00;99.90;;;;;;4903869;29;20289;-77
2022/10/09 11:35:23;;;;;;;7.97;7.30;;;16.00;99.90;;;;;;4911045;29;20242;-77
2022/10/09 11:38:00;;;;;;;4.03;2.40;;;16.00;99.90;;;;;;4901918;29;20203;-79
2022/10/09 11:40:31;;;;;;;4.00;2.30;;;15.90;99.90;;;;;;4916184;29;20199;-78
2022/10/09 11:43:08;;;;;;;4.00;2.40;;;16.00;99.90;;;;;;4901282;29;20211;-78
2022/10/09 11:45:41;;;;;;;5.50;2.53;;;16.00;99.90;;;;;;4893053;29;20230;-76
2022/10/09 11:48:15;;;;;;;2.53;2.27;;;16.00;99.90;;;;;;4911083;29;20243;-76
2022/10/09 11:50:52;;;;;;;4.33;2.40;;;16.00;99.90;;;;;;4913439;29;20209;-77
2022/10/09 11:53:24;;;;;;;6.00;2.60;;;16.10;99.90;;;;;;4901410;29;20202;-78
2022/10/09 11:56:02;;;;;;;5.67;2.40;;;16.10;99.90;;;;;;4930802;29;20215;-77
2022/10/09 11:58:29;;;;;;;7.20;2.40;;;16.20;99.90;;;;;;4933119;29;20563;-77
2022/10/09 12:01:09;;;;;;;3.53;2.40;;;16.20;99.90;;;;;;4932864;28;20696;-79
2022/10/09 12:03:38;;;;;;;3.40;2.13;;;16.40;99.90;;;;;;4901407;29;20621;-78
2022/10/09 12:06:09;;;;;;;8.33;7.60;;;16.60;99.90;;;;;;4932773;29;20238;-80
2022/10/09 12:08:39;;;;;;;7.90;7.27;;;16.60;99.90;;;;;;4898537;29;20206;-79
2022/10/09 12:11:13;;;;;;;7.50;6.90;;;16.70;99.90;;;;;;4923419;29;20202;-77
2022/10/09 12:13:47;;;;;;;7.83;7.23;;;16.80;99.90;;;;;;4894902;29;20215;-76
2022/10/09 12:16:45;;;;;;;6.83;6.10;;;16.80;99.90;;;;;;4906401;29;20250;-82
2022/10/09 12:19:18;;;;;;;7.80;7.10;;;16.70;99.90;;;;;;4845821;29;20214;-82
2022/10/09 12:21:51;;;;;;;7.70;6.97;;;16.60;99.90;;;;;;4889529;29;20293;-78
2022/10/09 12:24:22;;;;;;;7.40;6.80;;;16.50;99.90;;;;;;4919626;29;20215;-77
2022/10/09 12:26:50;;;;;;;7.03;6.43;;;16.40;99.90;;;;;;4900723;29;20219;-77
2022/10/09 12:29:27;;;;;;;7.33;6.73;;;16.40;99.90;;;;;;4910457;29;20233;-78
2022/10/09 12:31:57;;;;;;;7.00;6.40;;;16.30;99.90;;;;;;4916227;29;20236;-78
2022/10/09 12:34:28;;;;;;;6.60;6.10;;;16.20;99.90;;;;;;4915335;29;20734;-78
2022/10/09 12:37:14;;;;;;;6.77;6.17;;;16.20;99.90;;;;;;4911752;29;20271;-77
2022/10/09 12:39:43;;;;;;;7.60;5.83;;;16.20;99.90;;;;;;4912376;29;20210;-78
2022/10/09 12:42:17;;;;;;;6.97;6.30;;;16.20;99.90;;;;;;4919549;29;20203;-78
2022/10/09 12:44:45;;;;;;;7.93;6.50;;;16.30;99.90;;;;;;4913632;29;20285;-79
2022/10/09 12:47:19;;;;;;;6.37;5.97;;;16.30;99.90;;;;;;4917054;29;20248;-78
2022/10/09 12:49:58;;;;;;;7.17;6.67;;;16.40;99.90;;;;;;4917260;29;20479;-78
2022/10/09 12:52:26;;;;;;;7.10;6.50;;;16.50;99.90;;;;;;4894339;29;20205;-78
2022/10/09 12:54:54;;;;;;;6.87;6.37;;;16.50;99.90;;;;;;4917506;29;20746;-78
2022/10/09 12:57:22;;;;;;;6.77;6.17;;;16.50;99.90;;;;;;4915101;29;20603;-78
2022/10/09 12:59:49;;;;;;;8.00;7.30;;;16.50;99.90;;;;;;4896085;29;20307;-79